sensor_id;sensor_type;location;lat;lon;timestamp;P1;durP1;ratioP1;P2;durP2;ratioP2
19509;SDS011;9896;42.486;26.506;2023-05-07T00:02:19;14.13;;;8.90;;
19509;SDS011;9896;42.486;26.506;2023-05-07T00:04:45;16.07;;;8.87;;
19509;SDS011;9896;42.486;26.506;2023-05-07T00:07:10;14.37;;;7.77;;
19509;SDS011;9896;42.486;26.506;2023-05-07T00:09:35;11.37;;;7.33;;
19509;SDS011;9896;42.486;26.506;2023-05-07T00:12:01;10.40;;;7.47;;
19509;SDS011;9896;42.486;26.506;2023-05-07T00:14:26;11.97;;;6.97;;
19509;SDS011;9896;42.486;26.506;2023-05-07T00:16:51;12.23;;;7.67;;
19509;SDS011;9896;42.486;26.506;2023-05-07T00:19:16;9.03;;;7.33;;
19509;SDS011;9896;42.486;26.506;2023-05-07T00:21:42;9.97;;;6.80;;
19509;SDS011;9896;42.486;26.506;2023-05-07T00:24:07;11.27;;;6.63;;
19509;SDS011;9896;42.486;26.506;2023-05-07T00:26:32;8.57;;;6.00;;
19509;SDS011;9896;42.486;26.506;2023-05-07T00:28:58;14.43;;;6.77;;
19509;SDS011;9896;42.486;26.506;2023-05-07T00:31:23;7.77;;;5.50;;
19509;SDS011;9896;42.486;26.506;2023-05-07T00:33:48;12.27;;;6.00;;
19509;SDS011;9896;42.486;26.506;2023-05-07T00:36:14;13.03;;;5.57;;
19509;SDS011;9896;42.486;26.506;2023-05-07T00:38:39;9.33;;;5.10;;
19509;SDS011;9896;42.486;26.506;2023-05-07T00:41:04;7.13;;;5.17;;
19509;SDS011;9896;42.486;26.506;2023-05-07T00:43:30;9.60;;;5.47;;
19509;SDS011;9896;42.486;26.506;2023-05-07T00:45:55;8.43;;;5.53;;
19509;SDS011;9896;42.486;26.506;2023-05-07T00:48:21;9.63;;;5.70;;
19509;SDS011;9896;42.486;26.506;2023-05-07T00:50:46;7.40;;;5.67;;
19509;SDS011;9896;42.486;26.506;2023-05-07T00:53:12;6.90;;;5.10;;
19509;SDS011;9896;42.486;26.506;2023-05-07T00:55:38;10.23;;;5.63;;
19509;SDS011;9896;42.486;26.506;2023-05-07T00:58:03;6.47;;;4.93;;
19509;SDS011;9896;42.486;26.506;2023-05-07T01:00:28;10.83;;;5.57;;
19509;SDS011;9896;42.486;26.506;2023-05-07T01:02:54;8.27;;;5.60;;
19509;SDS011;9896;42.486;26.506;2023-05-07T01:05:19;8.40;;;5.50;;
19509;SDS011;9896;42.486;26.506;2023-05-07T01:07:45;10.40;;;5.80;;
19509;SDS011;9896;42.486;26.506;2023-05-07T01:10:11;11.07;;;4.80;;
19509;SDS011;9896;42.486;26.506;2023-05-07T01:12:37;10.43;;;5.23;;
19509;SDS011;9896;42.486;26.506;2023-05-07T01:15:03;10.50;;;5.90;;
19509;SDS011;9896;42.486;26.506;2023-05-07T01:17:30;7.50;;;5.10;;
19509;SDS011;9896;42.486;26.506;2023-05-07T01:19:58;10.17;;;5.97;;
19509;SDS011;9896;42.486;26.506;2023-05-07T01:22:30;10.47;;;5.60;;
19509;SDS011;9896;42.486;26.506;2023-05-07T01:24:56;13.17;;;7.73;;
19509;SDS011;9896;42.486;26.506;2023-05-07T01:27:24;14.27;;;7.50;;
19509;SDS011;9896;42.486;26.506;2023-05-07T01:29:49;13.27;;;8.10;;
19509;SDS011;9896;42.486;26.506;2023-05-07T01:32:15;11.73;;;7.57;;
19509;SDS011;9896;42.486;26.506;2023-05-07T01:34:42;10.80;;;7.53;;
19509;SDS011;9896;42.486;26.506;2023-05-07T01:37:08;17.77;;;9.60;;
19509;SDS011;9896;42.486;26.506;2023-05-07T01:39:33;17.80;;;8.67;;
19509;SDS011;9896;42.486;26.506;2023-05-07T01:41:58;14.37;;;9.07;;
19509;SDS011;9896;42.486;26.506;2023-05-07T01:44:24;15.97;;;9.80;;
19509;SDS011;9896;42.486;26.506;2023-05-07T01:46:50;14.47;;;8.60;;
19509;SDS011;9896;42.486;26.506;2023-05-07T01:49:16;15.83;;;9.37;;
19509;SDS011;9896;42.486;26.506;2023-05-07T01:51:41;16.20;;;10.17;;
19509;SDS011;9896;42.486;26.506;2023-05-07T01:54:06;18.20;;;10.43;;
19509;SDS011;9896;42.486;26.506;2023-05-07T01:56:33;17.03;;;10.63;;
19509;SDS011;9896;42.486;26.506;2023-05-07T01:58:58;16.33;;;10.17;;
19509;SDS011;9896;42.486;26.506;2023-05-07T02:01:23;15.60;;;10.60;;
19509;SDS011;9896;42.486;26.506;2023-05-07T02:03:49;16.63;;;10.77;;
19509;SDS011;9896;42.486;26.506;2023-05-07T02:06:14;14.83;;;9.97;;
19509;SDS011;9896;42.486;26.506;2023-05-07T02:08:39;19.23;;;10.33;;
19509;SDS011;9896;42.486;26.506;2023-05-07T02:11:05;15.47;;;10.60;;
19509;SDS011;9896;42.486;26.506;2023-05-07T02:13:31;20.33;;;10.63;;
19509;SDS011;9896;42.486;26.506;2023-05-07T02:15:57;16.20;;;10.33;;
19509;SDS011;9896;42.486;26.506;2023-05-07T02:18:22;17.33;;;10.80;;
19509;SDS011;9896;42.486;26.506;2023-05-07T02:20:47;20.07;;;10.13;;
19509;SDS011;9896;42.486;26.506;2023-05-07T02:23:13;18.33;;;10.27;;
19509;SDS011;9896;42.486;26.506;2023-05-07T02:25:38;17.97;;;9.90;;
19509;SDS011;9896;42.486;26.506;2023-05-07T02:28:03;16.50;;;9.23;;
19509;SDS011;9896;42.486;26.506;2023-05-07T02:30:29;15.63;;;8.30;;
19509;SDS011;9896;42.486;26.506;2023-05-07T02:32:54;13.33;;;6.83;;
19509;SDS011;9896;42.486;26.506;2023-05-07T02:35:20;11.93;;;6.87;;
19509;SDS011;9896;42.486;26.506;2023-05-07T02:37:45;14.43;;;6.50;;
19509;SDS011;9896;42.486;26.506;2023-05-07T02:40:10;10.40;;;5.60;;
19509;SDS011;9896;42.486;26.506;2023-05-07T02:42:36;12.40;;;6.40;;
19509;SDS011;9896;42.486;26.506;2023-05-07T02:45:02;10.13;;;5.43;;
19509;SDS011;9896;42.486;26.506;2023-05-07T02:47:27;6.93;;;4.30;;
19509;SDS011;9896;42.486;26.506;2023-05-07T02:49:53;8.47;;;3.87;;
19509;SDS011;9896;42.486;26.506;2023-05-07T02:52:19;7.97;;;3.80;;
19509;SDS011;9896;42.486;26.506;2023-05-07T02:54:44;6.00;;;3.00;;
19509;SDS011;9896;42.486;26.506;2023-05-07T02:57:09;7.10;;;3.33;;
19509;SDS011;9896;42.486;26.506;2023-05-07T02:59:34;5.53;;;3.17;;
19509;SDS011;9896;42.486;26.506;2023-05-07T03:02:00;4.47;;;2.90;;
19509;SDS011;9896;42.486;26.506;2023-05-07T03:04:25;6.00;;;3.13;;
19509;SDS011;9896;42.486;26.506;2023-05-07T03:06:51;4.33;;;3.27;;
19509;SDS011;9896;42.486;26.506;2023-05-07T03:09:16;6.43;;;2.97;;
19509;SDS011;9896;42.486;26.506;2023-05-07T03:11:41;4.70;;;3.07;;
19509;SDS011;9896;42.486;26.506;2023-05-07T03:14:07;8.00;;;4.23;;
19509;SDS011;9896;42.486;26.506;2023-05-07T03:16:32;8.53;;;4.73;;
19509;SDS011;9896;42.486;26.506;2023-05-07T03:18:57;8.53;;;5.37;;
19509;SDS011;9896;42.486;26.506;2023-05-07T03:21:23;9.87;;;4.90;;
19509;SDS011;9896;42.486;26.506;2023-05-07T03:23:48;9.37;;;4.23;;
19509;SDS011;9896;42.486;26.506;2023-05-07T03:26:13;4.70;;;3.50;;
19509;SDS011;9896;42.486;26.506;2023-05-07T03:28:38;5.37;;;3.50;;
19509;SDS011;9896;42.486;26.506;2023-05-07T03:31:04;7.20;;;3.00;;
19509;SDS011;9896;42.486;26.506;2023-05-07T03:33:32;4.40;;;3.30;;
19509;SDS011;9896;42.486;26.506;2023-05-07T03:35:58;5.60;;;3.40;;
19509;SDS011;9896;42.486;26.506;2023-05-07T03:38:23;3.47;;;3.00;;
19509;SDS011;9896;42.486;26.506;2023-05-07T03:40:48;6.20;;;3.07;;
19509;SDS011;9896;42.486;26.506;2023-05-07T03:43:14;6.47;;;3.00;;
19509;SDS011;9896;42.486;26.506;2023-05-07T03:45:39;6.00;;;3.30;;
19509;SDS011;9896;42.486;26.506;2023-05-07T03:48:04;8.70;;;3.77;;
19509;SDS011;9896;42.486;26.506;2023-05-07T03:50:29;6.33;;;3.27;;
19509;SDS011;9896;42.486;26.506;2023-05-07T03:52:55;8.67;;;3.47;;
19509;SDS011;9896;42.486;26.506;2023-05-07T03:55:20;3.70;;;3.00;;
19509;SDS011;9896;42.486;26.506;2023-05-07T03:57:45;4.77;;;3.23;;
19509;SDS011;9896;42.486;26.506;2023-05-07T04:00:11;6.60;;;3.30;;
19509;SDS011;9896;42.486;26.506;2023-05-07T04:02:36;6.27;;;3.30;;
19509;SDS011;9896;42.486;26.506;2023-05-07T04:05:02;134.43;;;9.83;;
19509;SDS011;9896;42.486;26.506;2023-05-07T04:07:27;6.00;;;3.20;;
19509;SDS011;9896;42.486;26.506;2023-05-07T04:09:52;5.70;;;3.23;;
19509;SDS011;9896;42.486;26.506;2023-05-07T04:12:17;5.50;;;3.50;;
19509;SDS011;9896;42.486;26.506;2023-05-07T04:14:43;7.03;;;3.43;;
19509;SDS011;9896;42.486;26.506;2023-05-07T04:17:08;4.87;;;3.40;;
19509;SDS011;9896;42.486;26.506;2023-05-07T04:19:35;9.33;;;3.60;;
19509;SDS011;9896;42.486;26.506;2023-05-07T04:22:01;4.50;;;3.27;;
19509;SDS011;9896;42.486;26.506;2023-05-07T04:24:26;7.83;;;3.43;;
19509;SDS011;9896;42.486;26.506;2023-05-07T04:26:51;4.40;;;3.70;;
19509;SDS011;9896;42.486;26.506;2023-05-07T04:29:17;7.07;;;3.60;;
19509;SDS011;9896;42.486;26.506;2023-05-07T04:31:43;4.17;;;3.23;;
19509;SDS011;9896;42.486;26.506;2023-05-07T04:34:11;7.10;;;3.70;;
19509;SDS011;9896;42.486;26.506;2023-05-07T04:36:37;6.03;;;3.20;;
19509;SDS011;9896;42.486;26.506;2023-05-07T04:39:03;5.30;;;3.60;;
19509;SDS011;9896;42.486;26.506;2023-05-07T04:41:28;5.40;;;3.70;;
19509;SDS011;9896;42.486;26.506;2023-05-07T04:43:53;6.50;;;4.03;;
19509;SDS011;9896;42.486;26.506;2023-05-07T04:46:19;11.30;;;3.40;;
19509;SDS011;9896;42.486;26.506;2023-05-07T04:48:44;4.50;;;3.70;;
19509;SDS011;9896;42.486;26.506;2023-05-07T04:51:10;6.07;;;3.80;;
19509;SDS011;9896;42.486;26.506;2023-05-07T04:53:35;7.67;;;2.80;;
19509;SDS011;9896;42.486;26.506;2023-05-07T04:56:01;6.47;;;3.53;;
19509;SDS011;9896;42.486;26.506;2023-05-07T04:58:26;3.47;;;3.00;;
19509;SDS011;9896;42.486;26.506;2023-05-07T05:00:52;9.90;;;3.50;;
19509;SDS011;9896;42.486;26.506;2023-05-07T05:03:17;4.93;;;3.53;;
19509;SDS011;9896;42.486;26.506;2023-05-07T05:05:43;5.07;;;3.20;;
19509;SDS011;9896;42.486;26.506;2023-05-07T05:08:08;4.57;;;3.20;;
19509;SDS011;9896;42.486;26.506;2023-05-07T05:10:33;4.07;;;2.90;;
19509;SDS011;9896;42.486;26.506;2023-05-07T05:12:59;7.63;;;4.07;;
19509;SDS011;9896;42.486;26.506;2023-05-07T05:15:24;6.53;;;3.53;;
19509;SDS011;9896;42.486;26.506;2023-05-07T05:17:49;6.67;;;2.97;;
19509;SDS011;9896;42.486;26.506;2023-05-07T05:20:15;5.43;;;3.27;;
19509;SDS011;9896;42.486;26.506;2023-05-07T05:22:41;6.43;;;3.60;;
19509;SDS011;9896;42.486;26.506;2023-05-07T05:25:06;2.87;;;2.40;;
19509;SDS011;9896;42.486;26.506;2023-05-07T05:27:32;5.43;;;2.97;;
19509;SDS011;9896;42.486;26.506;2023-05-07T05:29:57;4.97;;;2.80;;
19509;SDS011;9896;42.486;26.506;2023-05-07T05:32:22;5.50;;;3.17;;
19509;SDS011;9896;42.486;26.506;2023-05-07T05:34:47;6.40;;;2.90;;
19509;SDS011;9896;42.486;26.506;2023-05-07T05:37:13;5.57;;;3.40;;
19509;SDS011;9896;42.486;26.506;2023-05-07T05:39:38;5.23;;;3.30;;
19509;SDS011;9896;42.486;26.506;2023-05-07T05:42:03;4.20;;;3.03;;
19509;SDS011;9896;42.486;26.506;2023-05-07T05:44:29;5.67;;;3.57;;
19509;SDS011;9896;42.486;26.506;2023-05-07T05:46:54;8.30;;;3.27;;
19509;SDS011;9896;42.486;26.506;2023-05-07T05:49:20;6.30;;;3.47;;
19509;SDS011;9896;42.486;26.506;2023-05-07T05:51:46;7.00;;;3.40;;
19509;SDS011;9896;42.486;26.506;2023-05-07T05:54:11;4.37;;;3.27;;
19509;SDS011;9896;42.486;26.506;2023-05-07T05:56:36;3.97;;;3.50;;
19509;SDS011;9896;42.486;26.506;2023-05-07T05:59:02;9.33;;;2.83;;
19509;SDS011;9896;42.486;26.506;2023-05-07T06:01:27;5.63;;;3.33;;
19509;SDS011;9896;42.486;26.506;2023-05-07T06:03:52;7.13;;;4.10;;
19509;SDS011;9896;42.486;26.506;2023-05-07T06:06:18;80.40;;;20.73;;
19509;SDS011;9896;42.486;26.506;2023-05-07T06:08:43;103.53;;;49.60;;
19509;SDS011;9896;42.486;26.506;2023-05-07T06:11:08;20.50;;;18.60;;
19509;SDS011;9896;42.486;26.506;2023-05-07T06:13:34;46.00;;;37.07;;
19509;SDS011;9896;42.486;26.506;2023-05-07T06:15:59;77.23;;;66.43;;
19509;SDS011;9896;42.486;26.506;2023-05-07T06:18:24;71.13;;;63.97;;
19509;SDS011;9896;42.486;26.506;2023-05-07T06:20:51;99.17;;;89.27;;
19509;SDS011;9896;42.486;26.506;2023-05-07T06:23:16;139.63;;;54.03;;
19509;SDS011;9896;42.486;26.506;2023-05-07T06:25:42;53.40;;;38.17;;
19509;SDS011;9896;42.486;26.506;2023-05-07T06:28:07;22.50;;;20.53;;
19509;SDS011;9896;42.486;26.506;2023-05-07T06:30:34;88.73;;;50.10;;
19509;SDS011;9896;42.486;26.506;2023-05-07T06:32:59;76.63;;;43.93;;
19509;SDS011;9896;42.486;26.506;2023-05-07T06:35:25;120.17;;;70.07;;
19509;SDS011;9896;42.486;26.506;2023-05-07T06:37:50;54.40;;;48.60;;
19509;SDS011;9896;42.486;26.506;2023-05-07T06:40:15;176.70;;;61.90;;
19509;SDS011;9896;42.486;26.506;2023-05-07T06:42:41;39.83;;;35.60;;
19509;SDS011;9896;42.486;26.506;2023-05-07T06:45:07;45.97;;;42.73;;
19509;SDS011;9896;42.486;26.506;2023-05-07T06:47:33;68.63;;;63.90;;
19509;SDS011;9896;42.486;26.506;2023-05-07T06:49:58;38.37;;;36.00;;
19509;SDS011;9896;42.486;26.506;2023-05-07T06:52:23;56.53;;;52.70;;
19509;SDS011;9896;42.486;26.506;2023-05-07T06:54:49;92.40;;;83.33;;
19509;SDS011;9896;42.486;26.506;2023-05-07T06:57:14;25.87;;;24.17;;
19509;SDS011;9896;42.486;26.506;2023-05-07T06:59:40;15.73;;;12.50;;
19509;SDS011;9896;42.486;26.506;2023-05-07T07:02:05;11.27;;;10.33;;
19509;SDS011;9896;42.486;26.506;2023-05-07T07:04:31;21.10;;;19.50;;
19509;SDS011;9896;42.486;26.506;2023-05-07T07:06:56;20.23;;;18.30;;
19509;SDS011;9896;42.486;26.506;2023-05-07T07:09:21;7.53;;;6.83;;
19509;SDS011;9896;42.486;26.506;2023-05-07T07:11:47;8.47;;;7.77;;
19509;SDS011;9896;42.486;26.506;2023-05-07T07:14:12;25.80;;;24.13;;
19509;SDS011;9896;42.486;26.506;2023-05-07T07:16:38;9.27;;;8.57;;
19509;SDS011;9896;42.486;26.506;2023-05-07T07:19:03;7.87;;;7.07;;
19509;SDS011;9896;42.486;26.506;2023-05-07T07:21:28;10.03;;;5.50;;
19509;SDS011;9896;42.486;26.506;2023-05-07T07:23:53;9.80;;;8.93;;
19509;SDS011;9896;42.486;26.506;2023-05-07T07:26:19;6.30;;;3.37;;
19509;SDS011;9896;42.486;26.506;2023-05-07T07:28:44;7.00;;;6.53;;
19509;SDS011;9896;42.486;26.506;2023-05-07T07:31:10;5.93;;;4.70;;
19509;SDS011;9896;42.486;26.506;2023-05-07T07:33:36;7.10;;;4.90;;
19509;SDS011;9896;42.486;26.506;2023-05-07T07:36:01;7.80;;;6.37;;
19509;SDS011;9896;42.486;26.506;2023-05-07T07:38:26;9.73;;;7.67;;
19509;SDS011;9896;42.486;26.506;2023-05-07T07:40:51;5.13;;;3.90;;
19509;SDS011;9896;42.486;26.506;2023-05-07T07:43:17;33.23;;;30.67;;
19509;SDS011;9896;42.486;26.506;2023-05-07T07:45:42;3.90;;;3.50;;
19509;SDS011;9896;42.486;26.506;2023-05-07T07:48:08;6.40;;;4.27;;
19509;SDS011;9896;42.486;26.506;2023-05-07T07:50:34;8.77;;;3.93;;
19509;SDS011;9896;42.486;26.506;2023-05-07T07:52:59;6.40;;;3.13;;
19509;SDS011;9896;42.486;26.506;2023-05-07T07:55:25;5.60;;;4.20;;
19509;SDS011;9896;42.486;26.506;2023-05-07T07:57:51;3.87;;;3.57;;
19509;SDS011;9896;42.486;26.506;2023-05-07T08:00:17;6.17;;;3.53;;
19509;SDS011;9896;42.486;26.506;2023-05-07T08:02:43;5.73;;;5.13;;
19509;SDS011;9896;42.486;26.506;2023-05-07T08:05:08;5.43;;;3.97;;
19509;SDS011;9896;42.486;26.506;2023-05-07T08:07:33;4.30;;;3.90;;
19509;SDS011;9896;42.486;26.506;2023-05-07T08:09:59;6.20;;;5.70;;
19509;SDS011;9896;42.486;26.506;2023-05-07T08:12:24;11.60;;;10.70;;
19509;SDS011;9896;42.486;26.506;2023-05-07T08:14:50;11.03;;;10.17;;
19509;SDS011;9896;42.486;26.506;2023-05-07T08:17:15;8.97;;;6.20;;
19509;SDS011;9896;42.486;26.506;2023-05-07T08:19:41;50.00;;;5.37;;
19509;SDS011;9896;42.486;26.506;2023-05-07T08:22:07;6.37;;;4.07;;
19509;SDS011;9896;42.486;26.506;2023-05-07T08:24:32;6.43;;;5.97;;
19509;SDS011;9896;42.486;26.506;2023-05-07T08:26:57;5.83;;;5.33;;
19509;SDS011;9896;42.486;26.506;2023-05-07T08:29:22;58.97;;;17.00;;
19509;SDS011;9896;42.486;26.506;2023-05-07T08:31:48;6.43;;;2.60;;
19509;SDS011;9896;42.486;26.506;2023-05-07T08:34:13;4.10;;;2.47;;
19509;SDS011;9896;42.486;26.506;2023-05-07T08:36:38;51.63;;;7.70;;
19509;SDS011;9896;42.486;26.506;2023-05-07T08:39:06;4.23;;;3.77;;
19509;SDS011;9896;42.486;26.506;2023-05-07T08:41:32;4.77;;;4.13;;
19509;SDS011;9896;42.486;26.506;2023-05-07T08:43:57;7.10;;;3.80;;
19509;SDS011;9896;42.486;26.506;2023-05-07T08:46:23;5.50;;;5.00;;
19509;SDS011;9896;42.486;26.506;2023-05-07T08:48:50;5.13;;;2.40;;
19509;SDS011;9896;42.486;26.506;2023-05-07T08:51:17;4.80;;;4.10;;
19509;SDS011;9896;42.486;26.506;2023-05-07T08:53:42;5.67;;;1.90;;
19509;SDS011;9896;42.486;26.506;2023-05-07T08:56:08;3.47;;;2.33;;
19509;SDS011;9896;42.486;26.506;2023-05-07T08:58:34;4.27;;;2.20;;
19509;SDS011;9896;42.486;26.506;2023-05-07T09:01:00;2.90;;;2.30;;
19509;SDS011;9896;42.486;26.506;2023-05-07T09:03:26;2.80;;;2.17;;
19509;SDS011;9896;42.486;26.506;2023-05-07T09:05:52;3.77;;;2.40;;
19509;SDS011;9896;42.486;26.506;2023-05-07T09:08:17;3.43;;;2.30;;
19509;SDS011;9896;42.486;26.506;2023-05-07T09:10:42;85.00;;;23.37;;
19509;SDS011;9896;42.486;26.506;2023-05-07T09:13:07;3.83;;;2.67;;
19509;SDS011;9896;42.486;26.506;2023-05-07T09:15:34;6.77;;;2.63;;
19509;SDS011;9896;42.486;26.506;2023-05-07T09:17:59;6.73;;;2.10;;
19509;SDS011;9896;42.486;26.506;2023-05-07T09:20:26;6.00;;;2.73;;
19509;SDS011;9896;42.486;26.506;2023-05-07T09:22:51;81.97;;;13.40;;
19509;SDS011;9896;42.486;26.506;2023-05-07T09:25:18;7.67;;;2.30;;
19509;SDS011;9896;42.486;26.506;2023-05-07T09:27:52;3.23;;;2.57;;
19509;SDS011;9896;42.486;26.506;2023-05-07T09:30:17;3.47;;;3.07;;
19509;SDS011;9896;42.486;26.506;2023-05-07T09:32:43;5.27;;;3.33;;
19509;SDS011;9896;42.486;26.506;2023-05-07T09:35:15;9.23;;;8.40;;
19509;SDS011;9896;42.486;26.506;2023-05-07T09:37:41;5.53;;;3.00;;
19509;SDS011;9896;42.486;26.506;2023-05-07T09:40:07;10.37;;;9.67;;
19509;SDS011;9896;42.486;26.506;2023-05-07T09:42:32;6.67;;;4.17;;
19509;SDS011;9896;42.486;26.506;2023-05-07T09:44:58;5.50;;;3.07;;
19509;SDS011;9896;42.486;26.506;2023-05-07T09:47:24;5.33;;;3.93;;
19509;SDS011;9896;42.486;26.506;2023-05-07T09:49:50;28.13;;;9.83;;
19509;SDS011;9896;42.486;26.506;2023-05-07T09:52:17;4.30;;;2.63;;
19509;SDS011;9896;42.486;26.506;2023-05-07T09:54:43;17.97;;;9.43;;
19509;SDS011;9896;42.486;26.506;2023-05-07T09:57:09;72.53;;;22.30;;
19509;SDS011;9896;42.486;26.506;2023-05-07T09:59:36;8.00;;;7.43;;
19509;SDS011;9896;42.486;26.506;2023-05-07T10:02:02;27.40;;;25.60;;
19509;SDS011;9896;42.486;26.506;2023-05-07T10:04:28;1999.90;;;999.90;;
19509;SDS011;9896;42.486;26.506;2023-05-07T10:06:53;1999.90;;;999.90;;
19509;SDS011;9896;42.486;26.506;2023-05-07T10:09:20;1999.90;;;999.90;;
19509;SDS011;9896;42.486;26.506;2023-05-07T10:11:46;1999.90;;;999.90;;
19509;SDS011;9896;42.486;26.506;2023-05-07T10:14:13;1999.90;;;999.90;;
19509;SDS011;9896;42.486;26.506;2023-05-07T10:16:39;1999.90;;;999.90;;
19509;SDS011;9896;42.486;26.506;2023-05-07T10:19:05;1999.90;;;999.90;;
19509;SDS011;9896;42.486;26.506;2023-05-07T10:21:30;1999.90;;;999.90;;
19509;SDS011;9896;42.486;26.506;2023-05-07T10:23:58;1999.90;;;999.90;;
19509;SDS011;9896;42.486;26.506;2023-05-07T10:26:24;1999.90;;;999.90;;
19509;SDS011;9896;42.486;26.506;2023-05-07T10:28:53;1999.90;;;999.90;;
19509;SDS011;9896;42.486;26.506;2023-05-07T10:34:06;1999.90;;;999.90;;
19509;SDS011;9896;42.486;26.506;2023-05-07T10:36:33;1999.90;;;999.90;;
19509;SDS011;9896;42.486;26.506;2023-05-07T10:38:59;1999.90;;;999.90;;
19509;SDS011;9896;42.486;26.506;2023-05-07T10:41:24;1999.90;;;999.90;;
19509;SDS011;9896;42.486;26.506;2023-05-07T10:43:50;1999.90;;;999.90;;
19509;SDS011;9896;42.486;26.506;2023-05-07T10:46:16;1999.90;;;999.90;;
19509;SDS011;9896;42.486;26.506;2023-05-07T10:51:29;1999.90;;;999.90;;
19509;SDS011;9896;42.486;26.506;2023-05-07T10:56:38;1999.90;;;999.90;;
19509;SDS011;9896;42.486;26.506;2023-05-07T11:01:57;1999.90;;;999.90;;
19509;SDS011;9896;42.486;26.506;2023-05-07T11:04:23;1999.90;;;999.90;;
19509;SDS011;9896;42.486;26.506;2023-05-07T11:12:17;1999.90;;;999.90;;
19509;SDS011;9896;42.486;26.506;2023-05-07T11:17:08;1999.90;;;999.90;;
19509;SDS011;9896;42.486;26.506;2023-05-07T11:19:49;1999.90;;;999.90;;
19509;SDS011;9896;42.486;26.506;2023-05-07T11:25:09;1999.90;;;999.90;;
19509;SDS011;9896;42.486;26.506;2023-05-07T11:27:35;1999.90;;;999.90;;
19509;SDS011;9896;42.486;26.506;2023-05-07T11:30:00;1999.90;;;999.90;;
19509;SDS011;9896;42.486;26.506;2023-05-07T11:32:29;1999.90;;;999.90;;
19509;SDS011;9896;42.486;26.506;2023-05-07T11:34:55;1999.90;;;999.90;;
19509;SDS011;9896;42.486;26.506;2023-05-07T11:37:21;1999.90;;;999.90;;
19509;SDS011;9896;42.486;26.506;2023-05-07T11:39:46;1999.90;;;999.90;;
19509;SDS011;9896;42.486;26.506;2023-05-07T11:42:25;1999.90;;;999.90;;
19509;SDS011;9896;42.486;26.506;2023-05-07T11:44:50;1999.90;;;999.90;;
19509;SDS011;9896;42.486;26.506;2023-05-07T11:47:18;1999.90;;;999.90;;
19509;SDS011;9896;42.486;26.506;2023-05-07T11:49:46;1999.90;;;999.90;;
19509;SDS011;9896;42.486;26.506;2023-05-07T11:52:12;1999.90;;;999.90;;
19509;SDS011;9896;42.486;26.506;2023-05-07T11:54:38;1999.90;;;999.90;;
19509;SDS011;9896;42.486;26.506;2023-05-07T11:57:03;1999.90;;;999.90;;
19509;SDS011;9896;42.486;26.506;2023-05-07T11:59:28;1999.90;;;999.90;;
19509;SDS011;9896;42.486;26.506;2023-05-07T12:01:57;1999.90;;;999.90;;
19509;SDS011;9896;42.486;26.506;2023-05-07T12:04:24;1999.90;;;999.90;;
19509;SDS011;9896;42.486;26.506;2023-05-07T12:06:49;1999.90;;;999.90;;
19509;SDS011;9896;42.486;26.506;2023-05-07T12:09:18;1999.90;;;999.90;;
19509;SDS011;9896;42.486;26.506;2023-05-07T12:11:45;1999.90;;;999.90;;
19509;SDS011;9896;42.486;26.506;2023-05-07T12:14:10;1999.90;;;999.90;;
19509;SDS011;9896;42.486;26.506;2023-05-07T12:16:36;1999.90;;;999.90;;
19509;SDS011;9896;42.486;26.506;2023-05-07T12:19:01;1999.90;;;999.90;;
19509;SDS011;9896;42.486;26.506;2023-05-07T12:21:26;1999.90;;;999.90;;
19509;SDS011;9896;42.486;26.506;2023-05-07T12:23:52;1999.90;;;999.90;;
19509;SDS011;9896;42.486;26.506;2023-05-07T12:26:18;1999.90;;;999.90;;
19509;SDS011;9896;42.486;26.506;2023-05-07T12:28:44;1999.90;;;999.90;;
19509;SDS011;9896;42.486;26.506;2023-05-07T12:31:09;1999.90;;;999.90;;
19509;SDS011;9896;42.486;26.506;2023-05-07T12:33:35;1999.90;;;999.90;;
19509;SDS011;9896;42.486;26.506;2023-05-07T12:36:02;1999.90;;;999.90;;
19509;SDS011;9896;42.486;26.506;2023-05-07T12:38:32;1999.90;;;999.90;;
19509;SDS011;9896;42.486;26.506;2023-05-07T12:40:59;1999.90;;;999.90;;
19509;SDS011;9896;42.486;26.506;2023-05-07T12:43:26;1999.90;;;999.90;;
19509;SDS011;9896;42.486;26.506;2023-05-07T12:45:53;1999.90;;;999.90;;
19509;SDS011;9896;42.486;26.506;2023-05-07T12:48:19;1999.90;;;999.90;;
19509;SDS011;9896;42.486;26.506;2023-05-07T12:50:44;1999.90;;;999.90;;
19509;SDS011;9896;42.486;26.506;2023-05-07T12:53:10;1999.90;;;999.90;;
19509;SDS011;9896;42.486;26.506;2023-05-07T12:55:44;1999.90;;;999.90;;
19509;SDS011;9896;42.486;26.506;2023-05-07T13:00:41;1999.90;;;999.90;;
19509;SDS011;9896;42.486;26.506;2023-05-07T13:03:08;1999.90;;;999.90;;
19509;SDS011;9896;42.486;26.506;2023-05-07T13:05:34;1999.90;;;999.90;;
19509;SDS011;9896;42.486;26.506;2023-05-07T13:08:00;1999.90;;;999.90;;
19509;SDS011;9896;42.486;26.506;2023-05-07T13:10:27;1999.90;;;999.90;;
19509;SDS011;9896;42.486;26.506;2023-05-07T13:12:53;1999.90;;;999.90;;
19509;SDS011;9896;42.486;26.506;2023-05-07T13:15:19;1999.90;;;999.90;;
19509;SDS011;9896;42.486;26.506;2023-05-07T13:17:44;1999.90;;;999.90;;
19509;SDS011;9896;42.486;26.506;2023-05-07T13:20:10;1999.90;;;999.90;;
19509;SDS011;9896;42.486;26.506;2023-05-07T13:22:36;1999.90;;;999.90;;
19509;SDS011;9896;42.486;26.506;2023-05-07T13:25:01;1999.90;;;999.90;;
19509;SDS011;9896;42.486;26.506;2023-05-07T13:27:27;1999.90;;;999.90;;
19509;SDS011;9896;42.486;26.506;2023-05-07T13:29:52;1999.90;;;999.90;;
19509;SDS011;9896;42.486;26.506;2023-05-07T13:32:17;1999.90;;;999.90;;
19509;SDS011;9896;42.486;26.506;2023-05-07T13:34:42;1999.90;;;999.90;;
19509;SDS011;9896;42.486;26.506;2023-05-07T13:37:09;1999.90;;;999.90;;
19509;SDS011;9896;42.486;26.506;2023-05-07T13:39:34;1999.90;;;999.90;;
19509;SDS011;9896;42.486;26.506;2023-05-07T13:42:00;1999.90;;;999.90;;
19509;SDS011;9896;42.486;26.506;2023-05-07T13:44:25;1999.90;;;999.90;;
19509;SDS011;9896;42.486;26.506;2023-05-07T13:46:51;1999.90;;;999.90;;
19509;SDS011;9896;42.486;26.506;2023-05-07T13:49:16;1999.90;;;999.90;;
19509;SDS011;9896;42.486;26.506;2023-05-07T13:51:41;1999.90;;;999.90;;
19509;SDS011;9896;42.486;26.506;2023-05-07T13:54:07;1999.90;;;999.90;;
19509;SDS011;9896;42.486;26.506;2023-05-07T13:56:32;1999.90;;;999.90;;
19509;SDS011;9896;42.486;26.506;2023-05-07T13:58:58;1999.90;;;999.90;;
19509;SDS011;9896;42.486;26.506;2023-05-07T14:01:23;1999.90;;;999.90;;
19509;SDS011;9896;42.486;26.506;2023-05-07T14:03:48;1999.90;;;999.90;;
19509;SDS011;9896;42.486;26.506;2023-05-07T14:06:14;1999.90;;;999.90;;
19509;SDS011;9896;42.486;26.506;2023-05-07T14:08:39;1999.90;;;999.90;;
19509;SDS011;9896;42.486;26.506;2023-05-07T14:11:04;1999.90;;;999.90;;
19509;SDS011;9896;42.486;26.506;2023-05-07T14:13:30;1999.90;;;999.90;;
19509;SDS011;9896;42.486;26.506;2023-05-07T14:15:56;1999.90;;;999.90;;
19509;SDS011;9896;42.486;26.506;2023-05-07T14:18:21;1999.90;;;999.90;;
19509;SDS011;9896;42.486;26.506;2023-05-07T14:20:47;1999.90;;;999.90;;
19509;SDS011;9896;42.486;26.506;2023-05-07T14:23:13;1999.90;;;999.90;;
19509;SDS011;9896;42.486;26.506;2023-05-07T14:25:39;1999.90;;;999.90;;
19509;SDS011;9896;42.486;26.506;2023-05-07T14:28:04;1999.90;;;999.90;;
19509;SDS011;9896;42.486;26.506;2023-05-07T14:30:29;1999.90;;;999.90;;
19509;SDS011;9896;42.486;26.506;2023-05-07T14:32:55;1999.90;;;999.90;;
19509;SDS011;9896;42.486;26.506;2023-05-07T14:35:20;1999.90;;;999.90;;
19509;SDS011;9896;42.486;26.506;2023-05-07T14:37:45;1999.90;;;999.90;;
19509;SDS011;9896;42.486;26.506;2023-05-07T14:40:11;1999.90;;;999.90;;